Aérodrome :







RETROUVEZ-NOUS SUR...

 
LOGIN :

S'inscrire | Disclaimer

   EN    FR    IT 

 









Légende :    VFR   VFR Marginal   IFR   IFR Intensif   IFR Très Intensif
Visi : 
Plafond : 
>= 8 km
>= 3000ft
5 à 8 km
1000 à 3000 ft
1500m à 5 km
500 à 1000 ft
800 à 1500m
200 à 500 ft
< 800m
< 200 ft
Symboles :   Orages  Brouillard  Fortes neiges  Fortes précipitations  Vent > 20 kt






- Altitude de l'aérodrome : 193 ft
- Code IATA : ZBF


CZBF - Bathurst

DERNIER METAR :
  • 121100Z AUTO 05007KT 5/8SM -SN VV006 M03/M03 A3002 RMK PRESFR SLP172

METARs EXPIRÉS :
  • 121000Z AUTO 07009G16KT 1/2SM SN VV004 M03/M04 A3006 RMK PRESFR SLP185
  • 120900Z AUTO 04003KT 1/2SM SN VV006 M05/M06 A3012 RMK PRESFR SLP204
  • 120847Z AUTO 03003KT 020V080 3/4SM -SN VV007 M05/M06 A3014 RMK SLP210

TAF TAF CZBF
Valide du 12 à 10h jusqu'au 12 à 22h UTC


120943Z 1210/1222 04005KT 1/2SM SN VV005
TEMPO 1210/1218 1SM -SN VV010
BECMG 1212/1214 06015G25KT
FM121800 06015G25KT 1SM -SN BLSN VV008
TEMPO 1218/1222 4SM -SN OVC010
PROB30 1218/1222 4SM -SNPL RMK FCST BASED ON AUTO OBS. NXT FCST BY 121400Z



MET'MAP, la Météo Aéronautique d'un coup d'oeil ! - Copyright ORBIFLY Décembre 2007 - Disclaimer

ORBIFLY MET'MAP TEAM :

Programmation & Développement : Alexandra Zaïnal
Conception & Développement : Baudouin d'Aumeries
Co-Programmation & Développement : Marc-Olivier Méhu
Soutien technique & logistique : Manuel Goepfert

Contact : metmap@orbifly.com




SOURCES & CREDITS :

   NOAA